Time;durP1;ratioP1;P1;durP2;ratioP2;P2;SDS_P1;SDS_P2;PMS_P1;PMS_P2;Temp;Humidity;BMP_temperature;BMP_pressure;BME280_temperature;BME280_humidity;BME280_pressure;Samples;Min_cycle;Max_cycle;Signal;HPM_P1;HPM_P2
2023/07/19 00:00:58;;;;;;;4.43;2.80;;;;;;;15.35;73.86;100765.28;4959327;28;20747;-70
2023/07/19 00:03:25;;;;;;;8.73;3.13;;;;;;;15.30;74.36;100760.19;4958992;28;20239;-69
2023/07/19 00:05:51;;;;;;;3.47;3.07;;;;;;;15.25;74.23;100755.94;4959802;28;20234;-70
2023/07/19 00:08:17;;;;;;;2.90;2.50;;;;;;;15.20;74.53;100752.78;4956783;28;20212;-70
2023/07/19 00:10:44;;;;;;;4.90;3.00;;;;;;;15.16;74.65;100750.06;4956756;28;20584;-69
2023/07/19 00:13:10;;;;;;;3.87;3.00;;;;;;;15.09;74.38;100749.16;4956509;28;20696;-70
2023/07/19 00:15:38;;;;;;;3.33;2.90;;;;;;;15.02;73.59;100749.03;4959248;28;20687;-70
2023/07/19 00:18:04;;;;;;;5.20;3.00;;;;;;;14.98;73.88;100751.63;4956858;28;20226;-69
2023/07/19 00:20:30;;;;;;;4.27;2.93;;;;;;;14.98;74.50;100737.56;4953025;28;20456;-69
2023/07/19 00:22:57;;;;;;;8.77;3.20;;;;;;;14.98;75.41;100748.97;4958785;28;20241;-70
2023/07/19 00:25:23;;;;;;;3.27;2.73;;;;;;;14.97;75.45;100744.78;4957408;28;20501;-69
2023/07/19 00:27:49;;;;;;;3.30;2.73;;;;;;;14.97;75.52;100744.78;4958746;28;20220;-70
2023/07/19 00:30:16;;;;;;;7.43;3.00;;;;;;;14.91;74.86;100738.19;4970894;28;20326;-70
2023/07/19 00:32:43;;;;;;;3.60;2.70;;;;;;;14.88;74.63;100744.22;4954884;28;20266;-71
2023/07/19 00:35:10;;;;;;;4.13;2.53;;;;;;;14.85;75.19;100739.56;4956176;28;20223;-70
2023/07/19 00:37:36;;;;;;;4.13;2.80;;;;;;;14.83;74.95;100749.81;4955044;28;20223;-70
2023/07/19 00:40:03;;;;;;;3.00;2.50;;;;;;;14.84;75.82;100746.03;4973690;28;20224;-69
2023/07/19 00:42:30;;;;;;;3.63;3.10;;;;;;;14.83;75.95;100743.69;4958929;28;20708;-70
2023/07/19 00:44:56;;;;;;;5.63;2.90;;;;;;;14.79;75.81;100740.19;4972426;28;20841;-70
2023/07/19 00:47:23;;;;;;;3.40;2.63;;;;;;;14.78;76.02;100742.09;4970189;28;20251;-69
2023/07/19 00:49:51;;;;;;;6.17;2.83;;;;;;;14.80;76.04;100741.75;4952610;28;20214;-69
2023/07/19 00:52:18;;;;;;;4.73;3.10;;;;;;;14.75;75.23;100742.78;4956133;28;20245;-70
2023/07/19 00:54:45;;;;;;;3.40;2.70;;;;;;;14.75;76.21;100740.13;5038366;22;20268;-74
2023/07/19 00:57:11;;;;;;;2.53;2.33;;;;;;;14.73;75.77;100737.06;4995695;28;20216;-74
2023/07/19 00:59:40;;;;;;;3.70;2.70;;;;;;;14.72;75.84;100727.56;5011088;28;20225;-75
2023/07/19 01:02:07;;;;;;;3.13;2.60;;;;;;;14.70;76.33;100721.03;4995666;28;20209;-74
2023/07/19 01:04:34;;;;;;;6.83;2.80;;;;;;;14.67;75.97;100727.03;5009728;28;20973;-74
2023/07/19 01:07:02;;;;;;;6.23;3.20;;;;;;;14.67;76.17;100727.03;5017947;28;20241;-74
2023/07/19 01:09:30;;;;;;;4.17;2.90;;;;;;;14.67;76.59;100729.69;5034434;23;20229;-72
2023/07/19 01:11:57;;;;;;;5.90;3.00;;;;;;;14.66;77.27;100726.28;5062850;28;20708;-72
2023/07/19 01:14:23;;;;;;;6.20;2.90;;;;;;;14.60;75.92;100726.91;5058916;28;20223;-72
2023/07/19 01:16:51;;;;;;;4.43;2.70;;;;;;;14.55;76.31;100716.56;5028920;28;20201;-72
2023/07/19 01:19:18;;;;;;;6.13;2.67;;;;;;;14.54;76.68;100709.69;5030368;28;20209;-72
2023/07/19 01:21:49;;;;;;;4.20;2.80;;;;;;;14.54;76.73;100717.69;5034525;28;20205;-72
2023/07/19 01:24:17;;;;;;;3.47;3.13;;;;;;;14.48;76.43;100708.41;5033254;28;20704;-72
2023/07/19 01:26:44;;;;;;;5.07;2.90;;;;;;;14.44;76.28;100712.91;5053862;28;20216;-72
2023/07/19 01:29:10;;;;;;;3.17;2.40;;;;;;;14.45;77.00;100709.91;5027224;28;20200;-72
2023/07/19 01:31:36;;;;;;;8.27;2.77;;;;;;;14.45;77.59;100703.81;5043614;28;20232;-72
2023/07/19 01:34:03;;;;;;;4.80;2.83;;;;;;;14.44;77.49;100700.38;5035958;28;20205;-72
2023/07/19 01:36:29;;;;;;;6.73;3.03;;;;;;;14.39;77.24;100697.97;5035375;28;20263;-72
2023/07/19 01:38:56;;;;;;;4.67;2.90;;;;;;;14.37;76.75;100700.22;5032505;28;20213;-72
2023/07/19 01:41:23;;;;;;;3.60;2.97;;;;;;;14.36;77.29;100692.59;5045838;28;20200;-73
2023/07/19 01:43:50;;;;;;;3.83;2.63;;;;;;;14.30;76.88;100694.78;5042132;28;20207;-73
2023/07/19 01:46:16;;;;;;;4.70;2.80;;;;;;;14.27;76.97;100689.34;5033929;28;20286;-72
2023/07/19 01:48:42;;;;;;;3.47;2.70;;;;;;;14.27;77.47;100695.47;5049678;28;20219;-72
2023/07/19 01:51:09;;;;;;;4.17;2.80;;;;;;;14.23;77.40;100691.19;5052822;28;20569;-72
2023/07/19 01:53:35;;;;;;;6.20;3.10;;;;;;;14.24;78.03;100696.13;5057796;28;20230;-72
2023/07/19 01:56:02;;;;;;;3.37;2.70;;;;;;;14.22;77.64;100692.28;5035188;28;20699;-72
2023/07/19 01:58:29;;;;;;;4.03;3.00;;;;;;;14.20;77.76;100691.88;5039823;28;20214;-72
2023/07/19 02:00:56;;;;;;;4.37;2.83;;;;;;;14.20;77.92;100690.00;5037168;28;20203;-72
2023/07/19 02:03:23;;;;;;;6.13;3.00;;;;;;;14.18;78.14;100689.53;5034349;28;20557;-72
2023/07/19 02:05:58;;;;;;;4.13;2.90;;;;;;;14.14;77.31;100688.69;5033354;28;20772;-73
2023/07/19 02:08:24;;;;;;;3.40;2.93;;;;;;;14.11;77.34;100684.06;5048530;28;20231;-73
2023/07/19 02:10:50;;;;;;;3.07;2.73;;;;;;;14.09;77.78;100690.84;5051426;28;20223;-73
2023/07/19 02:13:17;;;;;;;4.07;2.83;;;;;;;14.08;77.92;100678.69;5035471;28;20652;-73
2023/07/19 02:15:48;;;;;;;3.30;2.63;;;;;;;14.05;77.75;100677.50;5049503;28;20234;-73
2023/07/19 02:18:15;;;;;;;4.33;3.33;;;;;;;14.05;78.07;100689.97;5036506;28;20213;-72
2023/07/19 02:20:47;;;;;;;4.00;3.07;;;;;;;14.03;78.08;100692.97;5036930;28;20489;-73
2023/07/19 02:23:14;;;;;;;3.27;2.80;;;;;;;14.03;78.45;100690.31;5050603;28;20766;-73
2023/07/19 02:25:41;;;;;;;4.27;2.70;;;;;;;14.03;78.47;100687.66;5037484;28;20306;-72
2023/07/19 02:28:08;;;;;;;3.53;2.93;;;;;;;13.97;77.62;100686.41;5049340;28;20589;-73
2023/07/19 02:30:34;;;;;;;3.33;2.83;;;;;;;13.91;77.03;100693.09;5038915;28;20226;-72
2023/07/19 02:33:02;;;;;;;3.10;2.80;;;;;;;13.90;77.78;100690.78;5050039;28;20214;-73
2023/07/19 02:35:30;;;;;;;5.10;3.17;;;;;;;13.89;77.82;100697.19;5049040;28;20204;-73
2023/07/19 02:37:56;;;;;;;3.13;2.73;;;;;;;13.86;78.00;100696.00;5049699;28;20395;-72
2023/07/19 02:40:23;;;;;;;3.60;2.90;;;;;;;13.83;77.84;100686.09;5030186;28;20206;-73
2023/07/19 02:42:49;;;;;;;4.70;3.00;;;;;;;13.76;77.67;100683.25;5041904;28;20645;-73
2023/07/19 02:45:16;;;;;;;4.93;3.10;;;;;;;13.72;77.59;100684.28;5048082;28;20302;-73
2023/07/19 02:47:42;;;;;;;3.73;2.60;;;;;;;13.68;77.83;100670.16;5033604;28;20213;-73
2023/07/19 02:50:10;;;;;;;4.23;3.10;;;;;;;13.65;78.09;100681.44;5032886;28;20681;-73
2023/07/19 02:52:37;;;;;;;4.03;2.73;;;;;;;13.61;78.28;100668.09;5038790;28;20207;-72
2023/07/19 02:55:04;;;;;;;4.30;2.83;;;;;;;13.62;78.70;100669.63;5034416;28;20230;-73
2023/07/19 02:57:30;;;;;;;4.43;3.03;;;;;;;13.63;78.83;100665.09;5032190;28;20187;-73
2023/07/19 02:59:56;;;;;;;3.33;2.80;;;;;;;13.61;78.99;100660.13;5048714;28;20192;-72
2023/07/19 03:02:23;;;;;;;4.63;3.10;;;;;;;13.62;79.45;100661.69;5048823;28;20560;-73
2023/07/19 03:04:49;;;;;;;3.60;3.13;;;;;;;13.61;79.07;100662.03;5047598;28;20294;-72
2023/07/19 03:07:17;;;;;;;3.97;3.20;;;;;;;13.59;78.63;100657.06;5048721;28;20685;-72
2023/07/19 03:09:43;;;;;;;9.97;3.10;;;;;;;13.57;78.60;100669.16;5036541;28;20235;-72
2023/07/19 03:12:10;;;;;;;5.53;3.23;;;;;;;13.54;78.54;100667.94;5033607;28;20199;-73
2023/07/19 03:14:36;;;;;;;3.70;3.00;;;;;;;13.52;78.59;100675.47;5032129;28;20581;-73
2023/07/19 03:17:03;;;;;;;3.27;2.97;;;;;;;13.53;78.99;100674.38;5036272;28;20627;-73
2023/07/19 03:19:30;;;;;;;4.97;2.83;;;;;;;13.51;78.96;100675.81;5034240;28;20234;-73
2023/07/19 03:21:56;;;;;;;3.30;3.00;;;;;;;13.49;78.90;100664.75;5038017;28;20210;-73
2023/07/19 03:24:24;;;;;;;3.70;2.93;;;;;;;13.45;78.25;100672.63;5049420;28;20215;-72
2023/07/19 03:26:50;;;;;;;3.03;2.73;;;;;;;13.43;78.09;100669.56;5047956;28;20215;-72
2023/07/19 03:29:17;;;;;;;4.33;3.27;;;;;;;13.43;78.41;100661.63;5035927;28;20207;-73
2023/07/19 03:31:43;;;;;;;5.13;3.37;;;;;;;13.46;78.95;100666.22;5050069;28;20195;-73
2023/07/19 03:34:09;;;;;;;4.60;3.10;;;;;;;13.45;79.19;100672.63;5048154;28;20202;-73
2023/07/19 03:36:36;;;;;;;3.60;2.87;;;;;;;13.43;78.94;100674.09;5033021;28;20203;-72
2023/07/19 03:39:03;;;;;;;3.53;2.83;;;;;;;13.48;79.01;100671.97;5044153;28;20187;-73
2023/07/19 03:41:34;;;;;;;3.67;3.20;;;;;;;13.50;79.27;100663.66;5039211;28;20276;-73
2023/07/19 03:44:00;;;;;;;5.47;3.30;;;;;;;13.52;79.21;100667.53;5052399;28;20616;-72
2023/07/19 03:46:26;;;;;;;3.57;3.27;;;;;;;13.54;79.11;100670.59;5036826;28;20215;-72
2023/07/19 03:48:53;;;;;;;4.27;3.40;;;;;;;13.57;78.97;100667.25;5039547;28;20216;-72
2023/07/19 03:51:20;;;;;;;4.27;3.70;;;;;;;13.61;78.85;100662.03;5036850;28;20616;-73
2023/07/19 03:53:47;;;;;;;3.67;3.37;;;;;;;13.66;79.03;100665.19;5032001;28;20226;-73
2023/07/19 03:56:13;;;;;;;7.77;3.40;;;;;;;13.63;78.63;100649.97;5030366;28;20313;-73
2023/07/19 03:58:45;;;;;;;4.93;3.70;;;;;;;13.63;78.09;100660.59;5047173;28;20666;-72
2023/07/19 04:01:11;;;;;;;3.50;3.20;;;;;;;13.67;78.25;100663.31;5032942;28;20203;-73
2023/07/19 04:03:38;;;;;;;3.97;3.13;;;;;;;13.71;78.92;100664.94;5045010;28;20222;-72
2023/07/19 04:06:06;;;;;;;6.13;3.90;;;;;;;13.76;78.88;100658.63;5058555;28;20313;-73
2023/07/19 04:08:34;;;;;;;5.33;3.27;;;;;;;13.83;79.07;100654.25;5049219;28;20220;-73
2023/07/19 04:11:01;;;;;;;5.43;3.83;;;;;;;13.90;79.02;100650.94;5028704;28;20526;-73
2023/07/19 04:13:27;;;;;;;5.90;3.40;;;;;;;13.94;78.18;100652.59;5033311;28;20281;-73
2023/07/19 04:15:56;;;;;;;4.60;3.73;;;;;;;14.07;78.97;100654.00;5050466;28;20228;-73
2023/07/19 04:18:22;;;;;;;6.33;3.63;;;;;;;14.16;79.00;100649.28;5029795;28;20250;-73
2023/07/19 04:20:54;;;;;;;3.93;3.53;;;;;;;14.28;79.08;100659.06;5030077;28;20207;-73
2023/07/19 04:23:20;;;;;;;4.07;3.67;;;;;;;14.35;78.75;100649.34;5035374;28;20343;-73
2023/07/19 04:25:47;;;;;;;4.63;3.97;;;;;;;14.46;78.89;100650.31;5046543;28;20215;-73
2023/07/19 04:28:13;;;;;;;4.33;3.60;;;;;;;14.54;77.94;100644.03;5036984;28;20245;-73
2023/07/19 04:30:40;;;;;;;3.67;3.27;;;;;;;14.68;78.04;100651.50;5035736;28;20265;-74
2023/07/19 04:33:08;;;;;;;6.30;4.00;;;;;;;14.78;78.14;100651.72;5033771;28;20285;-72
2023/07/19 04:35:34;;;;;;;5.63;3.50;;;;;;;14.93;77.80;100647.44;5045586;28;20229;-73
2023/07/19 04:38:01;;;;;;;4.37;3.57;;;;;;;15.06;77.68;100649.56;5029691;28;20249;-73
2023/07/19 04:40:27;;;;;;;4.47;3.47;;;;;;;15.18;77.46;100646.75;5046570;28;20626;-73
2023/07/19 04:42:53;;;;;;;5.67;3.40;;;;;;;15.31;77.33;100642.78;5032366;28;20277;-73
2023/07/19 04:45:20;;;;;;;5.27;3.50;;;;;;;15.44;77.20;100641.53;5029347;28;20657;-73
2023/07/19 04:47:47;;;;;;;5.93;3.53;;;;;;;15.59;76.38;100639.84;5032451;28;20250;-73
2023/07/19 04:50:15;;;;;;;7.50;4.43;;;;;;;15.72;76.15;100641.97;5028297;28;20201;-73
2023/07/19 04:52:44;;;;;;;3.47;2.83;;;;;;;15.89;75.55;100649.44;5030291;28;20202;-74
2023/07/19 04:55:11;;;;;;;10.57;3.40;;;;;;;16.03;75.02;100649.66;5044730;28;20301;-73
2023/07/19 04:57:38;;;;;;;5.27;3.13;;;;;;;16.15;74.41;100638.75;5033230;28;20680;-73
2023/07/19 05:00:11;;;;;;;4.90;2.93;;;;;;;16.27;73.43;100637.78;5031995;28;20203;-73
2023/07/19 05:02:38;;;;;;;5.37;3.00;;;;;;;16.39;73.78;100630.34;5028280;28;20797;-74
2023/07/19 05:05:05;;;;;;;4.23;2.77;;;;;;;16.51;72.69;100632.78;5029216;28;20254;-74
2023/07/19 05:07:34;;;;;;;5.17;3.23;;;;;;;16.63;71.47;100634.44;5045542;28;20581;-73
2023/07/19 05:10:02;;;;;;;4.23;2.73;;;;;;;16.75;71.72;100639.53;5029144;28;20735;-73
2023/07/19 05:12:29;;;;;;;2.97;2.43;;;;;;;16.89;71.49;100648.47;5027991;28;20673;-73
2023/07/19 05:14:57;;;;;;;7.33;2.90;;;;;;;16.98;69.56;100640.16;5030362;28;20353;-73
2023/07/19 05:17:23;;;;;;;5.73;2.80;;;;;;;17.09;69.03;100651.69;5028635;28;20198;-74
2023/07/19 05:19:50;;;;;;;5.00;2.70;;;;;;;17.20;69.28;100637.34;5029744;28;20398;-73
2023/07/19 05:22:16;;;;;;;4.23;2.70;;;;;;;17.31;69.20;100634.75;5046243;28;20203;-73
2023/07/19 05:24:44;;;;;;;2.70;2.40;;;;;;;17.44;68.61;100639.47;5047112;28;20224;-73
2023/07/19 05:27:15;;;;;;;3.63;2.70;;;;;;;17.55;67.80;100634.22;5046769;28;20291;-74
2023/07/19 05:29:41;;;;;;;5.33;2.40;;;;;;;17.66;67.54;100635.06;5046073;28;20207;-74
2023/07/19 05:32:08;;;;;;;4.13;2.70;;;;;;;17.75;68.15;100630.91;5047225;28;20215;-74
2023/07/19 05:34:35;;;;;;;4.50;2.70;;;;;;;17.86;67.00;100629.06;5046083;28;20222;-74
2023/07/19 05:37:03;;;;;;;5.27;2.80;;;;;;;17.98;67.40;100628.78;5046051;28;20253;-74
2023/07/19 05:39:30;;;;;;;4.33;2.53;;;;;;;18.09;66.96;100636.84;5044138;28;20293;-74
2023/07/19 05:41:57;;;;;;;3.63;2.53;;;;;;;18.21;67.08;100633.88;5044202;28;20203;-73
2023/07/19 05:44:24;;;;;;;4.10;2.70;;;;;;;18.33;66.55;100636.25;5045220;28;20728;-74
2023/07/19 05:46:50;;;;;;;4.90;2.90;;;;;;;18.44;65.69;100634.38;5045010;28;20227;-74
2023/07/19 05:49:17;;;;;;;3.80;2.47;;;;;;;18.56;66.36;100636.69;5043068;28;20674;-73
2023/07/19 05:51:44;;;;;;;4.53;2.90;;;;;;;18.66;66.06;100635.97;5045276;28;20614;-74
2023/07/19 05:54:10;;;;;;;4.67;2.80;;;;;;;18.80;65.58;100638.69;5045128;28;20294;-73
2023/07/19 05:56:36;;;;;;;4.37;2.30;;;;;;;18.90;64.49;100636.06;5042115;28;20203;-73
2023/07/19 05:59:04;;;;;;;5.97;2.70;;;;;;;19.02;63.59;100646.41;5040678;28;20195;-73
2023/07/19 06:01:31;;;;;;;8.00;2.70;;;;;;;19.13;63.96;100641.03;5041692;28;20717;-74
2023/07/19 06:03:57;;;;;;;3.53;2.30;;;;;;;19.25;62.53;100644.16;5040404;28;20203;-73
2023/07/19 06:06:25;;;;;;;3.47;2.00;;;;;;;19.39;62.81;100646.06;5025994;28;20199;-73
2023/07/19 06:08:51;;;;;;;4.63;2.00;;;;;;;19.52;62.80;100648.00;5041363;28;20212;-74
2023/07/19 06:11:17;;;;;;;3.33;2.30;;;;;;;19.65;62.27;100645.69;5041750;28;20199;-74
2023/07/19 06:13:44;;;;;;;2.57;1.97;;;;;;;19.80;60.15;100639.16;5040928;28;20203;-74
2023/07/19 06:16:11;;;;;;;3.77;1.90;;;;;;;19.93;60.48;100638.34;5040781;28;20234;-73
2023/07/19 06:18:38;;;;;;;3.37;2.30;;;;;;;20.05;59.78;100640.66;5039230;28;20218;-74
2023/07/19 06:21:04;;;;;;;6.37;2.10;;;;;;;20.20;58.04;100636.03;5039711;28;20736;-74
2023/07/19 06:23:30;;;;;;;5.73;2.20;;;;;;;20.33;58.42;100640.56;5039364;28;20539;-74
2023/07/19 06:25:57;;;;;;;3.60;1.80;;;;;;;20.47;57.06;100627.13;5038976;28;20237;-74
2023/07/19 06:28:23;;;;;;;3.70;1.93;;;;;;;20.62;55.89;100627.81;5037759;28;20215;-74
2023/07/19 06:30:49;;;;;;;4.03;2.10;;;;;;;20.77;56.73;100631.94;5037667;28;20218;-74
2023/07/19 06:33:17;;;;;;;4.60;1.97;;;;;;;20.92;57.12;100630.75;5034877;28;20222;-74
2023/07/19 06:35:44;;;;;;;4.83;2.00;;;;;;;21.10;57.27;100631.38;5035760;28;20227;-74
2023/07/19 06:38:10;;;;;;;3.13;1.70;;;;;;;21.26;56.41;100623.59;5035654;28;20207;-74
2023/07/19 06:40:36;;;;;;;6.10;2.30;;;;;;;21.40;56.51;100620.78;5036836;28;20218;-74
2023/07/19 06:43:04;;;;;;;6.07;2.27;;;;;;;21.53;55.21;100614.53;5035092;28;20218;-74
2023/07/19 06:45:31;;;;;;;4.80;1.97;;;;;;;21.66;55.04;100628.22;5018405;28;20599;-74
2023/07/19 06:47:57;;;;;;;4.67;1.70;;;;;;;21.74;54.12;100618.97;5034645;28;20678;-74
2023/07/19 06:50:25;;;;;;;4.43;1.90;;;;;;;21.81;53.81;100614.28;5033222;28;20696;-73
2023/07/19 06:52:51;;;;;;;3.53;1.83;;;;;;;21.91;54.46;100616.13;5034947;28;20723;-74
2023/07/19 06:55:17;;;;;;;4.93;2.07;;;;;;;21.98;53.55;100610.66;5035453;28;20748;-74
2023/07/19 06:57:44;;;;;;;3.83;2.03;;;;;;;22.07;53.91;100610.94;5034185;28;20210;-74
2023/07/19 07:00:11;;;;;;;3.63;2.00;;;;;;;22.17;53.14;100610.06;5033692;28;20199;-74
2023/07/19 07:02:38;;;;;;;4.17;1.90;;;;;;;22.25;54.09;100602.66;5033320;28;21523;-74
2023/07/19 07:05:05;;;;;;;2.43;1.80;;;;;;;22.34;55.77;100603.69;5032928;28;20290;-74
2023/07/19 07:07:33;;;;;;;4.70;1.80;;;;;;;22.44;53.81;100604.75;5034909;28;20219;-73
2023/07/19 07:10:04;;;;;;;4.67;1.80;;;;;;;22.53;53.13;100603.09;5032425;28;20207;-74
2023/07/19 07:12:31;;;;;;;6.27;2.40;;;;;;;22.63;52.84;100604.88;5033617;28;20335;-74
2023/07/19 07:14:57;;;;;;;3.23;2.10;;;;;;;22.71;50.79;100608.97;5033263;28;20230;-74
2023/07/19 07:17:23;;;;;;;6.77;1.83;;;;;;;22.79;50.28;100596.97;5032372;28;20689;-74
2023/07/19 07:19:50;;;;;;;3.97;1.70;;;;;;;22.89;50.87;100603.34;5032111;28;20302;-74
2023/07/19 07:22:17;;;;;;;2.53;1.93;;;;;;;22.98;49.81;100600.91;5030436;28;20214;-75
2023/07/19 07:24:44;;;;;;;4.73;1.73;;;;;;;23.06;48.91;100588.84;5027261;28;20234;-74
2023/07/19 07:27:11;;;;;;;3.00;1.70;;;;;;;23.14;48.60;100599.13;5030218;28;20306;-74
2023/07/19 07:29:41;;;;;;;2.40;1.80;;;;;;;23.22;48.47;100596.34;5038405;28;20682;-74
2023/07/19 07:32:09;;;;;;;2.27;1.50;;;;;;;23.29;48.18;100592.34;5015283;28;20767;-74
2023/07/19 07:34:36;;;;;;;6.00;1.70;;;;;;;23.37;49.40;100594.94;5033587;28;20255;-74
2023/07/19 07:37:02;;;;;;;2.60;1.70;;;;;;;23.46;52.08;100595.91;5033809;28;20203;-74
2023/07/19 07:39:29;;;;;;;3.97;1.80;;;;;;;23.52;49.06;100589.63;5032908;28;20737;-74
2023/07/19 07:41:57;;;;;;;2.93;1.60;;;;;;;23.65;45.51;100593.25;5034923;28;20322;-75
2023/07/19 07:44:24;;;;;;;2.90;1.70;;;;;;;23.75;46.29;100589.59;5035827;28;20230;-74
2023/07/19 07:46:50;;;;;;;2.60;1.60;;;;;;;23.86;45.25;100590.16;5036871;28;20207;-74
2023/07/19 07:49:17;;;;;;;5.45;1.60;;;;;;;23.95;44.79;100594.28;5036984;28;20208;-74
2023/07/19 07:51:43;;;;;;;1.95;1.50;;;;;;;24.05;45.54;100586.00;5035286;28;20249;-74
2023/07/19 07:54:09;;;;;;;3.60;1.50;;;;;;;24.17;45.86;100579.94;5028942;28;20740;-74
2023/07/19 07:56:36;;;;;;;2.08;1.52;;;;;;;24.30;45.59;100582.78;5033075;28;20601;-74
2023/07/19 07:59:03;;;;;;;3.75;1.52;;;;;;;24.41;42.14;100580.59;5028658;28;20203;-74
2023/07/19 08:01:30;;;;;;;2.13;1.58;;;;;;;24.51;43.46;100576.94;5012782;28;20211;-74
2023/07/19 08:03:56;;;;;;;2.17;1.30;;;;;;;24.61;44.19;100573.25;5027166;28;20884;-74
2023/07/19 08:06:23;;;;;;;3.95;1.50;;;;;;;24.69;43.56;100566.50;5029582;28;20218;-74
2023/07/19 08:08:49;;;;;;;2.70;1.70;;;;;;;24.79;46.62;100568.19;5027238;28;20215;-74
2023/07/19 08:11:15;;;;;;;1.95;1.52;;;;;;;24.87;41.67;100564.91;5028758;28;20203;-74
2023/07/19 08:13:42;;;;;;;2.92;1.83;;;;;;;24.97;42.62;100560.44;5027963;28;20253;-74
2023/07/19 08:16:09;;;;;;;3.42;1.80;;;;;;;25.04;40.52;100565.69;5011436;28;20764;-74
2023/07/19 08:18:36;;;;;;;2.58;1.15;;;;;;;25.12;39.92;100562.38;5026272;28;20651;-74
2023/07/19 08:21:03;;;;;;;2.08;1.83;;;;;;;25.24;38.84;100559.00;5026523;28;20219;-74
2023/07/19 08:23:29;;;;;;;2.33;1.65;;;;;;;25.36;39.32;100560.25;5025261;28;21239;-74
2023/07/19 08:25:57;;;;;;;2.25;1.60;;;;;;;25.43;39.05;100551.97;5026789;28;20235;-74
2023/07/19 08:28:25;;;;;;;2.03;1.50;;;;;;;25.51;37.32;100556.00;5026827;28;20243;-74
2023/07/19 08:30:51;;;;;;;3.42;1.33;;;;;;;25.58;36.19;100553.13;5025262;28;20353;-74
2023/07/19 08:33:19;;;;;;;2.65;1.50;;;;;;;25.66;37.92;100549.03;5009318;28;20206;-74
2023/07/19 08:35:46;;;;;;;2.08;1.20;;;;;;;25.72;37.31;100545.38;5024460;28;20230;-74
2023/07/19 08:38:12;;;;;;;2.70;1.42;;;;;;;25.83;35.87;100539.66;5025635;28;20231;-74
2023/07/19 08:40:39;;;;;;;1.77;1.40;;;;;;;25.93;34.86;100558.34;5025345;28;20210;-74
2023/07/19 08:43:06;;;;;;;2.45;1.63;;;;;;;26.03;35.48;100554.59;5024790;28;20690;-74
2023/07/19 08:45:36;;;;;;;2.40;1.58;;;;;;;26.18;33.36;100558.41;5023893;28;20694;-74
2023/07/19 08:48:03;;;;;;;1.90;1.50;;;;;;;26.32;32.77;100544.44;5024042;28;20965;-73
2023/07/19 08:50:31;;;;;;;2.03;1.70;;;;;;;26.52;32.53;100544.25;5022433;28;20199;-74
2023/07/19 08:53:01;;;;;;;4.38;1.60;;;;;;;26.69;37.48;100534.81;5021247;28;21236;-74
2023/07/19 08:55:28;;;;;;;2.75;1.80;;;;;;;26.88;33.49;100539.25;5019734;28;20254;-74
2023/07/19 08:57:55;;;;;;;1.80;1.40;;;;;;;27.05;32.52;100546.81;5019191;28;20214;-74
2023/07/19 09:00:22;;;;;;;3.15;1.67;;;;;;;27.17;31.72;100540.63;5019645;28;20257;-74
2023/07/19 09:02:51;;;;;;;1.55;1.30;;;;;;;27.25;31.38;100536.44;5018090;28;20200;-75
2023/07/19 09:05:17;;;;;;;1.83;1.40;;;;;;;27.40;34.61;100542.16;5019943;28;20238;-74
2023/07/19 09:07:47;;;;;;;1.80;1.50;;;;;;;27.54;31.15;100541.66;5019592;28;20238;-75
2023/07/19 09:10:14;;;;;;;3.80;1.50;;;;;;;27.64;31.78;100530.44;5011416;28;20211;-74
2023/07/19 09:12:42;;;;;;;2.40;1.70;;;;;;;27.68;31.76;100535.72;5018784;28;20735;-74
2023/07/19 09:15:10;;;;;;;1.98;1.58;;;;;;;27.69;32.79;100529.09;5015951;28;20253;-75
2023/07/19 09:17:38;;;;;;;2.58;1.45;;;;;;;27.65;30.94;100525.78;5017440;28;20205;-75
2023/07/19 09:20:06;;;;;;;2.67;1.58;;;;;;;27.65;33.81;100526.53;5018757;28;20207;-74
2023/07/19 09:22:35;;;;;;;2.13;1.58;;;;;;;27.59;31.59;100516.66;5020805;28;20207;-74
2023/07/19 09:25:05;;;;;;;2.45;1.60;;;;;;;27.53;35.20;100526.56;5019246;28;20223;-74
2023/07/19 09:27:32;;;;;;;2.05;1.63;;;;;;;27.45;30.32;100517.94;5019673;28;20234;-74
2023/07/19 09:29:59;;;;;;;2.78;1.58;;;;;;;27.54;34.57;100514.53;5019043;28;20203;-74
2023/07/19 09:32:25;;;;;;;4.07;1.85;;;;;;;27.57;31.96;100510.94;5020952;28;20228;-74
2023/07/19 09:34:54;;;;;;;2.17;1.27;;;;;;;27.60;28.61;100512.78;5019739;28;20655;-74
2023/07/19 09:37:21;;;;;;;1.70;1.30;;;;;;;27.62;32.08;100508.44;5018176;28;20235;-74
2023/07/19 09:39:47;;;;;;;1.95;1.27;;;;;;;27.68;30.14;100508.59;5019580;28;20218;-74
2023/07/19 09:42:17;;;;;;;5.72;1.50;;;;;;;27.76;31.49;100502.47;5019532;28;20230;-74
2023/07/19 09:44:46;;;;;;;2.40;1.55;;;;;;;27.85;31.76;100502.56;5017922;28;20227;-74
2023/07/19 09:47:13;;;;;;;2.15;1.70;;;;;;;27.90;30.15;100506.66;5021715;28;20204;-74
2023/07/19 09:49:40;;;;;;;2.38;1.90;;;;;;;27.96;31.04;100504.88;5021258;28;20232;-75
2023/07/19 09:52:07;;;;;;;2.15;1.60;;;;;;;28.08;28.40;100502.06;5018851;28;20214;-75
2023/07/19 09:54:33;;;;;;;2.08;1.60;;;;;;;28.21;29.17;100504.69;5020868;28;20222;-74
2023/07/19 09:57:02;;;;;;;4.18;1.40;;;;;;;28.21;28.48;100504.69;5017600;28;20215;-74
2023/07/19 09:59:34;;;;;;;1.90;1.60;;;;;;;28.22;28.87;100504.25;5022107;28;20204;-74
2023/07/19 10:02:01;;;;;;;4.03;1.75;;;;;;;28.31;30.44;100500.81;5004847;28;20792;-75
2023/07/19 10:04:29;;;;;;;2.38;1.50;;;;;;;28.29;29.40;100506.69;5019558;28;20892;-74
2023/07/19 10:07:09;;;;;;;3.03;1.73;;;;;;;28.33;29.75;100495.69;5020267;28;20658;-74
2023/07/19 10:09:40;;;;;;;2.28;1.70;;;;;;;28.32;29.25;100494.16;5022463;28;20250;-74
2023/07/19 10:12:09;;;;;;;2.15;1.50;;;;;;;28.34;30.08;100495.22;5019996;28;21477;-74
2023/07/19 10:14:37;;;;;;;2.63;1.58;;;;;;;28.36;30.15;100492.06;5024756;28;20238;-74
2023/07/19 10:17:04;;;;;;;1.95;1.58;;;;;;;28.43;29.43;100489.13;5022610;28;20213;-74
2023/07/19 10:19:30;;;;;;;3.38;1.63;;;;;;;28.49;29.21;100481.88;5022204;28;20206;-74
2023/07/19 10:22:05;;;;;;;2.42;1.60;;;;;;;28.57;28.72;100477.66;5021805;28;20207;-74
2023/07/19 10:24:33;;;;;;;2.78;1.55;;;;;;;28.66;29.10;100477.69;5022389;28;20214;-74
2023/07/19 10:27:04;;;;;;;1.98;1.40;;;;;;;28.68;26.94;100469.84;5022316;28;21250;-74
2023/07/19 10:29:42;;;;;;;2.92;1.70;;;;;;;28.71;31.70;100479.81;5022156;28;20856;-74
2023/07/19 10:32:09;;;;;;;2.65;1.60;;;;;;;28.75;29.44;100469.56;5021751;28;20211;-74
2023/07/19 10:34:35;;;;;;;2.00;1.52;;;;;;;28.69;28.98;100471.38;5029866;28;20246;-74
2023/07/19 10:37:03;;;;;;;2.00;1.65;;;;;;;28.66;29.52;100472.25;5021192;28;20674;-74
2023/07/19 10:39:30;;;;;;;3.05;1.50;;;;;;;28.68;31.58;100470.59;5020338;28;20301;-74
2023/07/19 10:41:56;;;;;;;5.25;1.88;;;;;;;28.60;29.63;100463.97;5003823;28;20203;-75
2023/07/19 10:44:24;;;;;;;2.90;1.50;;;;;;;28.54;29.51;100463.03;5020635;28;20227;-74
2023/07/19 10:46:52;;;;;;;2.00;1.55;;;;;;;28.59;30.10;100461.69;5020612;28;20779;-74
2023/07/19 10:49:18;;;;;;;3.00;1.73;;;;;;;28.63;29.27;100451.41;5019713;28;20235;-74
2023/07/19 10:51:57;;;;;;;1.65;1.50;;;;;;;28.64;30.26;100445.53;5020081;28;20577;-74
2023/07/19 10:54:24;;;;;;;7.78;1.60;;;;;;;28.59;29.20;100450.81;5019776;28;20227;-74
2023/07/19 10:56:51;;;;;;;3.22;1.50;;;;;;;28.59;28.83;100451.56;5019471;28;20809;-74
2023/07/19 10:59:18;;;;;;;2.92;1.80;;;;;;;28.60;29.50;100449.59;5021566;28;20942;-74
2023/07/19 11:01:44;;;;;;;3.70;1.60;;;;;;;28.56;28.51;100440.84;5020235;28;20214;-74
2023/07/19 11:04:12;;;;;;;3.20;1.60;;;;;;;28.53;28.67;100431.63;5017748;28;20204;-74
2023/07/19 11:06:52;;;;;;;2.45;1.60;;;;;;;28.59;28.49;100437.97;5020182;28;20207;-74
2023/07/19 11:09:19;;;;;;;2.92;1.58;;;;;;;28.61;32.07;100441.00;5018743;28;20308;-74
2023/07/19 11:11:46;;;;;;;1.98;1.77;;;;;;;28.61;30.55;100435.56;5021772;28;20289;-74
2023/07/19 11:14:27;;;;;;;3.15;1.58;;;;;;;28.70;31.32;100429.38;5018743;28;20214;-74
2023/07/19 11:16:55;;;;;;;2.22;1.60;;;;;;;28.81;29.38;100432.41;5020565;28;20218;-74
2023/07/19 11:19:36;;;;;;;2.67;1.60;;;;;;;28.87;31.23;100419.72;5018786;28;20206;-75
2023/07/19 11:22:02;;;;;;;2.60;1.60;;;;;;;28.99;29.65;100422.31;5019770;28;20210;-74
2023/07/19 11:24:36;;;;;;;2.70;1.50;;;;;;;29.01;28.70;100419.16;5021211;28;20242;-75